createdAt,value
2023-05-10T00:00:18.842Z,5.40
2023-05-10T00:05:46.901Z,5.10
2023-05-10T00:11:08.803Z,5.00
2023-05-10T00:16:30.468Z,5.10
2023-05-10T00:21:52.376Z,5.20
2023-05-10T00:27:15.741Z,5.40
2023-05-10T00:32:37.721Z,5.50
2023-05-10T00:37:59.463Z,5.80
2023-05-10T00:43:21.463Z,6.60
2023-05-10T00:48:44.713Z,6.60
2023-05-10T00:54:06.402Z,6.40
2023-05-10T00:59:29.592Z,5.70
2023-05-10T01:04:53.140Z,5.90
2023-05-10T01:10:15.960Z,6.10
2023-05-10T01:15:38.863Z,6.50
2023-05-10T01:21:16.224Z,6.00
2023-05-10T01:27:00.193Z,6.30
2023-05-10T01:32:36.271Z,5.80
2023-05-10T01:38:09.112Z,5.60
2023-05-10T01:43:35.472Z,5.90
2023-05-10T01:48:59.512Z,5.60
2023-05-10T01:54:23.937Z,5.60
2023-05-10T01:59:46.699Z,6.20
2023-05-10T02:05:09.634Z,5.90
2023-05-10T02:10:33.494Z,9.60
2023-05-10T02:15:56.295Z,6.70
2023-05-10T02:21:18.362Z,6.00
2023-05-10T02:26:40.639Z,6.00
2023-05-10T02:32:03.860Z,5.90
2023-05-10T02:37:26.436Z,6.40
2023-05-10T02:42:50.964Z,6.40
2023-05-10T02:48:13.482Z,7.20
2023-05-10T02:53:37.084Z,6.80
2023-05-10T02:58:58.763Z,7.40
2023-05-10T03:04:20.645Z,7.50
2023-05-10T03:09:44.887Z,8.20
2023-05-10T03:15:28.014Z,8.40
2023-05-10T03:20:51.938Z,8.60
2023-05-10T03:26:22.867Z,8.00
2023-05-10T03:31:45.401Z,7.30
2023-05-10T03:37:07.330Z,7.10
2023-05-10T03:42:29.765Z,7.70
2023-05-10T03:47:52.159Z,8.10
2023-05-10T03:53:14.313Z,6.20
2023-05-10T03:58:40.104Z,6.30
2023-05-10T04:04:01.930Z,6.40
2023-05-10T04:09:27.970Z,7.30
2023-05-10T04:14:49.761Z,6.90
2023-05-10T04:20:12.293Z,7.40
2023-05-10T04:25:36.610Z,6.90
2023-05-10T04:31:05.226Z,6.20
2023-05-10T04:41:52.898Z,6.90
2023-05-10T04:47:14.821Z,6.30
2023-05-10T04:52:41.428Z,6.10
2023-05-10T04:58:03.914Z,6.00
2023-05-10T05:03:26.202Z,5.70
2023-05-10T05:08:50.753Z,5.20
2023-05-10T05:14:12.611Z,5.10
2023-05-10T05:19:37.193Z,5.10
2023-05-10T05:25:04.929Z,4.80
2023-05-10T05:30:26.726Z,5.70
2023-05-10T05:35:51.828Z,4.70
2023-05-10T05:41:13.588Z,4.80
2023-05-10T05:46:35.016Z,5.10
2023-05-10T05:52:01.120Z,4.80
2023-05-10T05:57:24.374Z,4.50
2023-05-10T06:02:46.510Z,5.20
2023-05-10T06:08:08.700Z,4.80
2023-05-10T06:13:33.418Z,5.10
2023-05-10T06:18:55.504Z,5.00
2023-05-10T06:24:17.474Z,4.10
2023-05-10T06:29:39.453Z,4.00
2023-05-10T06:35:01.188Z,4.40
2023-05-10T06:40:23.063Z,4.20
2023-05-10T06:45:45.066Z,4.50
2023-05-10T06:51:06.972Z,5.00
2023-05-10T06:56:29.006Z,6.90
2023-05-10T07:01:50.694Z,4.50
2023-05-10T07:07:24.184Z,3.60
2023-05-10T07:12:46.057Z,3.50
2023-05-10T07:18:08.190Z,3.20
2023-05-10T07:23:31.225Z,3.20
2023-05-10T07:28:53.509Z,3.50
2023-05-10T07:34:15.149Z,2.90
2023-05-10T07:39:36.767Z,2.80
2023-05-10T07:44:58.837Z,2.70
2023-05-10T07:50:22.766Z,3.60
2023-05-10T07:55:44.496Z,2.70
2023-05-10T08:01:06.713Z,2.20
2023-05-10T08:06:31.053Z,2.90
2023-05-10T08:11:53.139Z,2.70
2023-05-10T08:17:15.548Z,2.40
2023-05-10T08:22:37.153Z,2.20
2023-05-10T08:27:58.742Z,2.50
2023-05-10T08:33:20.968Z,2.60
2023-05-10T08:38:42.516Z,2.10
2023-05-10T08:44:06.328Z,2.60
2023-05-10T08:49:30.657Z,2.30
2023-05-10T08:54:53.000Z,2.60
2023-05-10T09:00:15.434Z,2.60
2023-05-10T09:05:40.518Z,2.10
2023-05-10T09:11:52.589Z,2.50
2023-05-10T09:17:47.943Z,2.80
2023-05-10T09:23:09.557Z,2.60
2023-05-10T09:28:35.569Z,2.40
2023-05-10T09:33:57.424Z,2.70
2023-05-10T09:39:22.013Z,2.70
2023-05-10T09:44:44.609Z,2.60
2023-05-10T09:50:07.761Z,2.20
2023-05-10T09:55:47.166Z,3.00
2023-05-10T10:01:13.421Z,2.30
2023-05-10T10:06:39.108Z,2.40
2023-05-10T10:12:01.806Z,2.40
2023-05-10T10:17:26.347Z,2.50
2023-05-10T10:22:48.609Z,3.40
2023-05-10T10:28:19.673Z,3.30
2023-05-10T10:33:57.636Z,2.40
2023-05-10T10:39:19.964Z,2.30
2023-05-10T10:44:43.018Z,3.20
2023-05-10T10:50:06.881Z,2.20
2023-05-10T10:55:30.846Z,3.40
2023-05-10T11:01:13.838Z,2.20
2023-05-10T11:06:37.067Z,2.30
2023-05-10T11:12:01.209Z,2.50
2023-05-10T11:17:26.172Z,2.90
2023-05-10T11:22:56.941Z,2.80
2023-05-10T11:28:20.951Z,2.60
2023-05-10T11:39:27.832Z,2.30
2023-05-10T11:44:49.569Z,2.90
2023-05-10T11:50:12.521Z,2.40
2023-05-10T11:55:34.936Z,3.10
2023-05-10T12:00:56.861Z,2.50
2023-05-10T12:06:20.095Z,2.20
2023-05-10T12:11:44.495Z,2.10
2023-05-10T12:17:06.505Z,2.40
2023-05-10T12:22:29.396Z,2.70
2023-05-10T12:27:53.816Z,2.20
2023-05-10T12:33:18.788Z,2.70
2023-05-10T12:38:48.696Z,2.90
2023-05-10T12:44:12.933Z,2.40
2023-05-10T12:49:35.239Z,2.10
2023-05-10T12:54:57.036Z,2.60
2023-05-10T13:00:19.569Z,3.30
2023-05-10T13:05:41.490Z,2.80
2023-05-10T13:11:04.223Z,2.20
2023-05-10T13:16:25.984Z,2.60
2023-05-10T13:21:48.770Z,3.00
2023-05-10T13:27:11.216Z,2.90
2023-05-10T13:32:33.877Z,3.30
2023-05-10T13:37:58.695Z,2.90
2023-05-10T13:43:21.287Z,3.00
2023-05-10T13:48:46.059Z,2.20
2023-05-10T13:54:07.794Z,2.20
2023-05-10T13:59:30.227Z,3.00
2023-05-10T14:04:52.250Z,2.60
2023-05-10T14:10:14.222Z,3.20
2023-05-10T14:15:36.116Z,3.60
2023-05-10T14:20:57.747Z,3.30
2023-05-10T14:26:19.766Z,2.80
2023-05-10T14:31:41.724Z,2.60
2023-05-10T14:37:03.839Z,2.50
2023-05-10T14:42:25.572Z,2.80
2023-05-10T14:47:47.509Z,2.60
2023-05-10T14:54:05.548Z,3.40
2023-05-10T14:59:46.707Z,2.70
2023-05-10T15:05:09.390Z,2.40
2023-05-10T15:10:33.817Z,3.10
2023-05-10T15:15:56.876Z,3.10
2023-05-10T15:21:18.728Z,3.70
2023-05-10T15:26:40.466Z,2.80
2023-05-10T15:32:03.945Z,2.90
2023-05-10T15:37:25.575Z,2.30
2023-05-10T15:42:47.461Z,2.80
2023-05-10T15:48:09.444Z,3.40
2023-05-10T15:53:31.573Z,5.40
2023-05-10T15:58:53.952Z,4.10
2023-05-10T16:04:15.673Z,5.60
2023-05-10T16:09:37.539Z,4.80
2023-05-10T16:14:59.633Z,4.20
2023-05-10T16:20:21.770Z,3.20
2023-05-10T16:25:43.597Z,3.30
2023-05-10T16:31:05.473Z,5.50
2023-05-10T16:36:29.413Z,5.40
2023-05-10T16:41:51.492Z,4.00
2023-05-10T16:47:16.539Z,4.00
2023-05-10T16:52:38.733Z,7.30
2023-05-10T16:58:01.101Z,4.60
2023-05-10T17:03:23.497Z,3.40
2023-05-10T17:08:45.651Z,9.40
2023-05-10T17:14:07.479Z,8.90
2023-05-10T17:19:29.105Z,8.50
2023-05-10T17:24:51.141Z,8.80
2023-05-10T17:30:13.588Z,5.60
2023-05-10T17:35:35.416Z,4.80
2023-05-10T17:40:57.136Z,4.20
2023-05-10T17:46:19.196Z,4.00
2023-05-10T17:51:44.101Z,4.00
2023-05-10T17:57:06.323Z,7.40
2023-05-10T18:02:28.100Z,4.00
2023-05-10T18:07:50.092Z,3.70
2023-05-10T18:13:12.206Z,3.90
2023-05-10T18:18:33.772Z,7.80
2023-05-10T18:23:55.762Z,5.10
2023-05-10T18:29:17.891Z,7.70
2023-05-10T18:34:39.530Z,4.70
2023-05-10T18:40:02.387Z,6.10
2023-05-10T18:45:24.388Z,4.90
2023-05-10T18:50:46.015Z,4.60
2023-05-10T18:56:08.053Z,4.20
2023-05-10T19:01:29.695Z,4.50
2023-05-10T19:06:51.613Z,4.40
2023-05-10T19:12:13.331Z,5.10
2023-05-10T19:17:37.099Z,5.30
2023-05-10T19:23:18.670Z,5.00
2023-05-10T19:28:41.000Z,4.80
2023-05-10T19:34:05.971Z,4.60
2023-05-10T19:39:28.172Z,5.10
2023-05-10T19:44:53.143Z,4.70
2023-05-10T19:50:16.486Z,4.40
2023-05-10T19:55:38.327Z,4.30
2023-05-10T20:01:00.468Z,4.20
2023-05-10T20:06:22.328Z,4.40
2023-05-10T20:11:43.872Z,6.00
2023-05-10T20:17:09.459Z,5.40
2023-05-10T20:22:31.334Z,5.30
2023-05-10T20:27:53.257Z,5.00
2023-05-10T20:33:17.765Z,4.60
2023-05-10T20:38:39.931Z,4.70
2023-05-10T20:44:01.659Z,4.30
2023-05-10T20:49:23.685Z,4.40
2023-05-10T20:54:45.417Z,4.00
2023-05-10T21:00:10.667Z,4.30
2023-05-10T21:05:33.046Z,4.30
2023-05-10T21:10:54.914Z,3.80
2023-05-10T21:16:16.870Z,4.50
2023-05-10T21:21:38.796Z,4.30
2023-05-10T21:27:01.394Z,4.10
2023-05-10T21:32:23.566Z,4.30
2023-05-10T21:37:45.725Z,4.40
2023-05-10T21:43:08.411Z,4.10
2023-05-10T21:48:30.996Z,4.10
2023-05-10T21:53:53.159Z,4.30
2023-05-10T21:59:14.996Z,4.00
2023-05-10T22:04:36.822Z,3.90
2023-05-10T22:09:58.990Z,4.00
2023-05-10T22:15:20.792Z,4.30
2023-05-10T22:20:47.370Z,4.30
2023-05-10T22:26:09.621Z,4.30
2023-05-10T22:31:31.695Z,4.80
2023-05-10T22:36:53.974Z,4.80
2023-05-10T22:42:16.674Z,5.50
2023-05-10T22:47:38.489Z,6.20
2023-05-10T22:53:01.024Z,6.10
2023-05-10T22:58:22.968Z,6.60
2023-05-10T23:03:44.873Z,6.70
2023-05-10T23:09:09.874Z,7.10
2023-05-10T23:14:31.570Z,7.40
2023-05-10T23:19:53.563Z,7.80
2023-05-10T23:25:15.811Z,8.30
2023-05-10T23:30:37.406Z,8.00
2023-05-10T23:36:01.830Z,8.90
2023-05-10T23:41:24.918Z,9.20
2023-05-10T23:46:46.811Z,8.30
2023-05-10T23:52:08.774Z,7.70
2023-05-10T23:57:30.363Z,8.00
